sensor_id;sensor_type;location;lat;lon;timestamp;P1;durP1;ratioP1;P2;durP2;ratioP2
5416;SDS011;2731;50.754;12.990;2023-02-28T00:01:29;9.40;;;3.85;;
5416;SDS011;2731;50.754;12.990;2023-02-28T00:03:56;6.82;;;3.15;;
5416;SDS011;2731;50.754;12.990;2023-02-28T00:06:25;7.75;;;3.08;;
5416;SDS011;2731;50.754;12.990;2023-02-28T00:08:54;7.20;;;2.50;;
5416;SDS011;2731;50.754;12.990;2023-02-28T00:11:20;5.38;;;3.05;;
5416;SDS011;2731;50.754;12.990;2023-02-28T00:13:47;6.15;;;3.83;;
5416;SDS011;2731;50.754;12.990;2023-02-28T00:16:14;8.13;;;5.15;;
5416;SDS011;2731;50.754;12.990;2023-02-28T00:18:42;7.75;;;5.07;;
5416;SDS011;2731;50.754;12.990;2023-02-28T00:21:10;8.60;;;5.25;;
5416;SDS011;2731;50.754;12.990;2023-02-28T00:23:37;9.57;;;4.28;;
5416;SDS011;2731;50.754;12.990;2023-02-28T00:26:05;6.78;;;4.22;;
5416;SDS011;2731;50.754;12.990;2023-02-28T00:28:34;7.70;;;4.15;;
5416;SDS011;2731;50.754;12.990;2023-02-28T00:31:02;6.95;;;4.18;;
5416;SDS011;2731;50.754;12.990;2023-02-28T00:33:29;5.72;;;3.50;;
5416;SDS011;2731;50.754;12.990;2023-02-28T00:36:04;7.28;;;4.63;;
5416;SDS011;2731;50.754;12.990;2023-02-28T00:38:30;8.23;;;4.82;;
5416;SDS011;2731;50.754;12.990;2023-02-28T00:40:57;10.48;;;4.22;;
5416;SDS011;2731;50.754;12.990;2023-02-28T00:43:31;6.72;;;3.78;;
5416;SDS011;2731;50.754;12.990;2023-02-28T00:45:59;7.05;;;3.42;;
5416;SDS011;2731;50.754;12.990;2023-02-28T00:48:26;8.63;;;3.72;;
5416;SDS011;2731;50.754;12.990;2023-02-28T00:50:55;6.97;;;4.07;;
5416;SDS011;2731;50.754;12.990;2023-02-28T00:53:22;7.38;;;4.32;;
5416;SDS011;2731;50.754;12.990;2023-02-28T00:55:50;6.28;;;3.83;;
5416;SDS011;2731;50.754;12.990;2023-02-28T00:58:17;5.75;;;3.58;;
5416;SDS011;2731;50.754;12.990;2023-02-28T01:00:46;7.05;;;4.20;;
5416;SDS011;2731;50.754;12.990;2023-02-28T01:03:19;6.75;;;4.10;;
5416;SDS011;2731;50.754;12.990;2023-02-28T01:05:49;7.65;;;4.18;;
5416;SDS011;2731;50.754;12.990;2023-02-28T01:08:16;7.10;;;3.95;;
5416;SDS011;2731;50.754;12.990;2023-02-28T01:10:44;7.68;;;4.90;;
5416;SDS011;2731;50.754;12.990;2023-02-28T01:13:14;7.95;;;4.65;;
5416;SDS011;2731;50.754;12.990;2023-02-28T01:15:49;7.35;;;4.65;;
5416;SDS011;2731;50.754;12.990;2023-02-28T01:18:20;8.05;;;4.47;;
5416;SDS011;2731;50.754;12.990;2023-02-28T01:20:47;9.48;;;4.47;;
5416;SDS011;2731;50.754;12.990;2023-02-28T01:23:19;8.45;;;3.78;;
5416;SDS011;2731;50.754;12.990;2023-02-28T01:25:48;6.38;;;3.97;;
5416;SDS011;2731;50.754;12.990;2023-02-28T01:28:15;9.25;;;4.43;;
5416;SDS011;2731;50.754;12.990;2023-02-28T01:30:41;8.52;;;4.38;;
5416;SDS011;2731;50.754;12.990;2023-02-28T01:33:08;12.60;;;4.68;;
5416;SDS011;2731;50.754;12.990;2023-02-28T01:35:36;8.75;;;4.00;;
5416;SDS011;2731;50.754;12.990;2023-02-28T01:38:03;8.35;;;4.07;;
5416;SDS011;2731;50.754;12.990;2023-02-28T01:40:30;6.72;;;3.88;;
5416;SDS011;2731;50.754;12.990;2023-02-28T01:42:57;6.20;;;3.28;;
5416;SDS011;2731;50.754;12.990;2023-02-28T01:47:50;8.75;;;3.47;;
5416;SDS011;2731;50.754;12.990;2023-02-28T01:50:23;7.43;;;3.88;;
5416;SDS011;2731;50.754;12.990;2023-02-28T01:52:55;8.73;;;4.60;;
5416;SDS011;2731;50.754;12.990;2023-02-28T01:55:26;6.55;;;4.05;;
5416;SDS011;2731;50.754;12.990;2023-02-28T01:57:56;7.32;;;3.38;;
5416;SDS011;2731;50.754;12.990;2023-02-28T02:00:27;7.95;;;3.63;;
5416;SDS011;2731;50.754;12.990;2023-02-28T02:02:54;6.68;;;3.38;;
5416;SDS011;2731;50.754;12.990;2023-02-28T02:05:23;8.38;;;4.15;;
5416;SDS011;2731;50.754;12.990;2023-02-28T02:08:01;5.43;;;3.20;;
5416;SDS011;2731;50.754;12.990;2023-02-28T02:10:31;6.82;;;3.03;;
5416;SDS011;2731;50.754;12.990;2023-02-28T02:18:55;3.95;;;3.03;;
5416;SDS011;2731;50.754;12.990;2023-02-28T02:26:41;5.22;;;3.58;;
5416;SDS011;2731;50.754;12.990;2023-02-28T02:29:16;7.72;;;4.00;;
5416;SDS011;2731;50.754;12.990;2023-02-28T02:37:14;6.57;;;3.92;;
5416;SDS011;2731;50.754;12.990;2023-02-28T02:39:58;6.38;;;3.15;;
5416;SDS011;2731;50.754;12.990;2023-02-28T02:42:29;6.68;;;3.55;;
5416;SDS011;2731;50.754;12.990;2023-02-28T02:45:24;9.63;;;3.38;;
5416;SDS011;2731;50.754;12.990;2023-02-28T02:47:48;6.35;;;3.55;;
5416;SDS011;2731;50.754;12.990;2023-02-28T02:50:19;6.38;;;3.65;;
5416;SDS011;2731;50.754;12.990;2023-02-28T02:52:51;6.70;;;3.90;;
5416;SDS011;2731;50.754;12.990;2023-02-28T02:55:20;7.03;;;3.97;;
5416;SDS011;2731;50.754;12.990;2023-02-28T02:58:02;6.53;;;3.67;;
5416;SDS011;2731;50.754;12.990;2023-02-28T03:00:31;6.28;;;3.65;;
5416;SDS011;2731;50.754;12.990;2023-02-28T03:02:59;7.22;;;3.88;;
5416;SDS011;2731;50.754;12.990;2023-02-28T03:05:39;7.97;;;4.88;;
5416;SDS011;2731;50.754;12.990;2023-02-28T03:10:38;5.43;;;3.35;;
5416;SDS011;2731;50.754;12.990;2023-02-28T03:24:11;6.53;;;3.67;;
5416;SDS011;2731;50.754;12.990;2023-02-28T03:26:42;6.93;;;3.92;;
5416;SDS011;2731;50.754;12.990;2023-02-28T03:31:54;9.10;;;5.35;;
5416;SDS011;2731;50.754;12.990;2023-02-28T03:34:27;10.57;;;4.75;;
5416;SDS011;2731;50.754;12.990;2023-02-28T03:36:57;7.80;;;4.47;;
5416;SDS011;2731;50.754;12.990;2023-02-28T03:42:19;9.18;;;4.20;;
5416;SDS011;2731;50.754;12.990;2023-02-28T03:44:48;8.80;;;4.78;;
5416;SDS011;2731;50.754;12.990;2023-02-28T03:47:21;9.55;;;4.20;;
5416;SDS011;2731;50.754;12.990;2023-02-28T03:50:52;11.57;;;5.10;;
5416;SDS011;2731;50.754;12.990;2023-02-28T03:52:53;10.68;;;5.55;;
5416;SDS011;2731;50.754;12.990;2023-02-28T03:55:32;9.48;;;5.00;;
5416;SDS011;2731;50.754;12.990;2023-02-28T04:00:48;8.88;;;5.22;;
5416;SDS011;2731;50.754;12.990;2023-02-28T04:03:13;12.18;;;5.30;;
5416;SDS011;2731;50.754;12.990;2023-02-28T04:05:50;8.18;;;4.75;;
5416;SDS011;2731;50.754;12.990;2023-02-28T04:08:20;11.48;;;4.93;;
5416;SDS011;2731;50.754;12.990;2023-02-28T04:11:49;9.82;;;4.90;;
5416;SDS011;2731;50.754;12.990;2023-02-28T04:13:46;9.75;;;5.07;;
5416;SDS011;2731;50.754;12.990;2023-02-28T04:16:13;7.75;;;4.20;;
5416;SDS011;2731;50.754;12.990;2023-02-28T04:18:39;9.38;;;4.75;;
5416;SDS011;2731;50.754;12.990;2023-02-28T04:21:09;8.10;;;4.10;;
5416;SDS011;2731;50.754;12.990;2023-02-28T04:23:38;11.30;;;5.97;;
5416;SDS011;2731;50.754;12.990;2023-02-28T04:26:05;8.93;;;5.25;;
5416;SDS011;2731;50.754;12.990;2023-02-28T04:28:33;9.85;;;5.10;;
5416;SDS011;2731;50.754;12.990;2023-02-28T04:31:02;7.63;;;4.15;;
5416;SDS011;2731;50.754;12.990;2023-02-28T04:33:31;9.27;;;4.88;;
5416;SDS011;2731;50.754;12.990;2023-02-28T04:36:05;9.35;;;5.10;;
5416;SDS011;2731;50.754;12.990;2023-02-28T04:38:35;9.52;;;5.32;;
5416;SDS011;2731;50.754;12.990;2023-02-28T04:41:01;12.32;;;5.88;;
5416;SDS011;2731;50.754;12.990;2023-02-28T04:43:29;11.82;;;5.13;;
5416;SDS011;2731;50.754;12.990;2023-02-28T04:45:57;11.68;;;5.45;;
5416;SDS011;2731;50.754;12.990;2023-02-28T04:48:29;10.50;;;5.38;;
5416;SDS011;2731;50.754;12.990;2023-02-28T04:51:01;9.50;;;5.53;;
5416;SDS011;2731;50.754;12.990;2023-02-28T04:53:30;10.73;;;5.75;;
5416;SDS011;2731;50.754;12.990;2023-02-28T04:55:57;11.73;;;5.75;;
5416;SDS011;2731;50.754;12.990;2023-02-28T04:58:25;11.85;;;5.63;;
5416;SDS011;2731;50.754;12.990;2023-02-28T05:00:52;9.95;;;5.97;;
5416;SDS011;2731;50.754;12.990;2023-02-28T05:03:22;14.07;;;7.90;;
5416;SDS011;2731;50.754;12.990;2023-02-28T05:05:52;12.70;;;6.60;;
5416;SDS011;2731;50.754;12.990;2023-02-28T05:08:21;14.55;;;6.40;;
5416;SDS011;2731;50.754;12.990;2023-02-28T05:10:50;8.82;;;5.38;;
5416;SDS011;2731;50.754;12.990;2023-02-28T05:13:17;9.38;;;5.70;;
5416;SDS011;2731;50.754;12.990;2023-02-28T05:15:45;12.63;;;6.15;;
5416;SDS011;2731;50.754;12.990;2023-02-28T05:18:13;11.13;;;6.55;;
5416;SDS011;2731;50.754;12.990;2023-02-28T05:20:39;11.15;;;5.70;;
5416;SDS011;2731;50.754;12.990;2023-02-28T05:23:07;12.82;;;5.63;;
5416;SDS011;2731;50.754;12.990;2023-02-28T05:25:35;16.10;;;6.43;;
5416;SDS011;2731;50.754;12.990;2023-02-28T05:28:04;14.40;;;6.47;;
5416;SDS011;2731;50.754;12.990;2023-02-28T05:30:31;10.90;;;5.75;;
5416;SDS011;2731;50.754;12.990;2023-02-28T05:33:00;13.20;;;6.65;;
5416;SDS011;2731;50.754;12.990;2023-02-28T05:35:29;10.45;;;5.97;;
5416;SDS011;2731;50.754;12.990;2023-02-28T05:37:55;11.77;;;6.38;;
5416;SDS011;2731;50.754;12.990;2023-02-28T05:40:23;12.50;;;5.70;;
5416;SDS011;2731;50.754;12.990;2023-02-28T05:42:51;11.50;;;6.20;;
5416;SDS011;2731;50.754;12.990;2023-02-28T05:45:18;12.70;;;6.25;;
5416;SDS011;2731;50.754;12.990;2023-02-28T05:47:47;14.57;;;7.72;;
5416;SDS011;2731;50.754;12.990;2023-02-28T05:50:13;11.80;;;7.63;;
5416;SDS011;2731;50.754;12.990;2023-02-28T05:52:42;13.43;;;6.75;;
5416;SDS011;2731;50.754;12.990;2023-02-28T05:55:12;13.65;;;6.82;;
5416;SDS011;2731;50.754;12.990;2023-02-28T05:57:39;12.85;;;7.13;;
5416;SDS011;2731;50.754;12.990;2023-02-28T06:00:08;15.68;;;7.07;;
5416;SDS011;2731;50.754;12.990;2023-02-28T06:02:37;14.18;;;6.55;;
5416;SDS011;2731;50.754;12.990;2023-02-28T06:05:16;13.40;;;6.63;;
5416;SDS011;2731;50.754;12.990;2023-02-28T06:07:44;13.82;;;6.93;;
5416;SDS011;2731;50.754;12.990;2023-02-28T06:10:11;14.38;;;6.95;;
5416;SDS011;2731;50.754;12.990;2023-02-28T06:12:40;14.48;;;6.75;;
5416;SDS011;2731;50.754;12.990;2023-02-28T06:15:07;13.73;;;7.47;;
5416;SDS011;2731;50.754;12.990;2023-02-28T06:17:34;14.32;;;8.18;;
5416;SDS011;2731;50.754;12.990;2023-02-28T06:20:03;13.30;;;6.72;;
5416;SDS011;2731;50.754;12.990;2023-02-28T06:22:31;13.10;;;6.88;;
5416;SDS011;2731;50.754;12.990;2023-02-28T06:24:58;11.40;;;6.40;;
5416;SDS011;2731;50.754;12.990;2023-02-28T06:27:26;12.90;;;6.70;;
5416;SDS011;2731;50.754;12.990;2023-02-28T06:29:54;10.95;;;6.55;;
5416;SDS011;2731;50.754;12.990;2023-02-28T06:32:23;11.30;;;6.35;;
5416;SDS011;2731;50.754;12.990;2023-02-28T06:34:52;15.38;;;6.95;;
5416;SDS011;2731;50.754;12.990;2023-02-28T06:37:20;15.68;;;7.88;;
5416;SDS011;2731;50.754;12.990;2023-02-28T06:39:46;12.68;;;6.28;;
5416;SDS011;2731;50.754;12.990;2023-02-28T06:42:14;13.18;;;6.63;;
5416;SDS011;2731;50.754;12.990;2023-02-28T06:44:43;14.13;;;6.28;;
5416;SDS011;2731;50.754;12.990;2023-02-28T06:47:11;13.35;;;6.65;;
5416;SDS011;2731;50.754;12.990;2023-02-28T06:49:37;13.77;;;7.35;;
5416;SDS011;2731;50.754;12.990;2023-02-28T06:52:05;13.23;;;7.03;;
5416;SDS011;2731;50.754;12.990;2023-02-28T06:54:36;13.75;;;6.90;;
5416;SDS011;2731;50.754;12.990;2023-02-28T06:57:02;14.38;;;6.72;;
5416;SDS011;2731;50.754;12.990;2023-02-28T06:59:30;13.02;;;6.63;;
5416;SDS011;2731;50.754;12.990;2023-02-28T07:01:59;15.93;;;7.38;;
5416;SDS011;2731;50.754;12.990;2023-02-28T07:04:28;11.55;;;7.50;;
5416;SDS011;2731;50.754;12.990;2023-02-28T07:06:55;11.75;;;6.68;;
5416;SDS011;2731;50.754;12.990;2023-02-28T07:09:22;15.90;;;7.32;;
5416;SDS011;2731;50.754;12.990;2023-02-28T07:11:57;13.20;;;6.60;;
5416;SDS011;2731;50.754;12.990;2023-02-28T07:14:27;10.65;;;5.75;;
5416;SDS011;2731;50.754;12.990;2023-02-28T07:16:54;10.88;;;6.22;;
5416;SDS011;2731;50.754;12.990;2023-02-28T07:19:20;15.98;;;8.77;;
5416;SDS011;2731;50.754;12.990;2023-02-28T07:21:46;15.63;;;8.48;;
5416;SDS011;2731;50.754;12.990;2023-02-28T07:24:15;17.65;;;7.85;;
5416;SDS011;2731;50.754;12.990;2023-02-28T07:29:14;15.30;;;7.82;;
5416;SDS011;2731;50.754;12.990;2023-02-28T07:31:45;13.90;;;8.35;;
5416;SDS011;2731;50.754;12.990;2023-02-28T07:34:13;13.70;;;7.50;;
5416;SDS011;2731;50.754;12.990;2023-02-28T07:36:40;13.13;;;6.70;;
5416;SDS011;2731;50.754;12.990;2023-02-28T07:39:09;14.10;;;6.20;;
5416;SDS011;2731;50.754;12.990;2023-02-28T07:41:39;11.68;;;6.20;;
5416;SDS011;2731;50.754;12.990;2023-02-28T07:44:17;9.88;;;5.78;;
5416;SDS011;2731;50.754;12.990;2023-02-28T07:46:45;11.20;;;6.22;;
5416;SDS011;2731;50.754;12.990;2023-02-28T07:49:11;11.32;;;6.15;;
5416;SDS011;2731;50.754;12.990;2023-02-28T07:51:39;13.80;;;6.43;;
5416;SDS011;2731;50.754;12.990;2023-02-28T07:54:07;11.77;;;6.00;;
5416;SDS011;2731;50.754;12.990;2023-02-28T07:56:33;11.18;;;6.75;;
5416;SDS011;2731;50.754;12.990;2023-02-28T07:59:01;11.82;;;6.45;;
5416;SDS011;2731;50.754;12.990;2023-02-28T08:01:29;9.35;;;5.45;;
5416;SDS011;2731;50.754;12.990;2023-02-28T08:03:56;11.30;;;6.43;;
5416;SDS011;2731;50.754;12.990;2023-02-28T08:06:24;11.32;;;7.10;;
5416;SDS011;2731;50.754;12.990;2023-02-28T08:08:52;12.25;;;6.25;;
5416;SDS011;2731;50.754;12.990;2023-02-28T08:11:25;13.65;;;6.43;;
5416;SDS011;2731;50.754;12.990;2023-02-28T08:13:55;10.70;;;6.50;;
5416;SDS011;2731;50.754;12.990;2023-02-28T08:16:24;12.93;;;5.82;;
5416;SDS011;2731;50.754;12.990;2023-02-28T08:18:53;9.98;;;5.65;;
5416;SDS011;2731;50.754;12.990;2023-02-28T08:21:20;9.02;;;6.30;;
5416;SDS011;2731;50.754;12.990;2023-02-28T08:23:49;11.52;;;5.63;;
5416;SDS011;2731;50.754;12.990;2023-02-28T08:26:16;13.10;;;5.55;;
5416;SDS011;2731;50.754;12.990;2023-02-28T08:28:45;9.43;;;5.43;;
5416;SDS011;2731;50.754;12.990;2023-02-28T08:31:13;11.35;;;5.88;;
5416;SDS011;2731;50.754;12.990;2023-02-28T08:33:39;8.38;;;5.75;;
5416;SDS011;2731;50.754;12.990;2023-02-28T08:36:08;11.90;;;6.38;;
5416;SDS011;2731;50.754;12.990;2023-02-28T08:38:37;11.40;;;5.60;;
5416;SDS011;2731;50.754;12.990;2023-02-28T08:41:07;11.23;;;5.85;;
5416;SDS011;2731;50.754;12.990;2023-02-28T08:43:36;11.43;;;5.72;;
5416;SDS011;2731;50.754;12.990;2023-02-28T08:46:05;9.02;;;5.40;;
5416;SDS011;2731;50.754;12.990;2023-02-28T08:48:32;11.18;;;6.57;;
5416;SDS011;2731;50.754;12.990;2023-02-28T08:51:01;11.93;;;6.32;;
5416;SDS011;2731;50.754;12.990;2023-02-28T08:53:28;11.52;;;6.53;;
5416;SDS011;2731;50.754;12.990;2023-02-28T08:55:59;11.63;;;6.25;;
5416;SDS011;2731;50.754;12.990;2023-02-28T08:58:43;11.00;;;6.45;;
5416;SDS011;2731;50.754;12.990;2023-02-28T09:01:13;9.13;;;5.95;;
5416;SDS011;2731;50.754;12.990;2023-02-28T09:03:41;9.52;;;5.45;;
5416;SDS011;2731;50.754;12.990;2023-02-28T09:06:21;13.95;;;6.50;;
5416;SDS011;2731;50.754;12.990;2023-02-28T09:08:48;10.20;;;5.97;;
5416;SDS011;2731;50.754;12.990;2023-02-28T09:11:17;12.45;;;6.47;;
5416;SDS011;2731;50.754;12.990;2023-02-28T09:13:45;8.88;;;5.63;;
5416;SDS011;2731;50.754;12.990;2023-02-28T09:16:13;9.07;;;5.15;;
5416;SDS011;2731;50.754;12.990;2023-02-28T09:18:41;8.95;;;5.70;;
5416;SDS011;2731;50.754;12.990;2023-02-28T09:21:08;8.65;;;5.47;;
5416;SDS011;2731;50.754;12.990;2023-02-28T09:23:37;11.18;;;5.95;;
5416;SDS011;2731;50.754;12.990;2023-02-28T09:26:05;10.52;;;5.35;;
5416;SDS011;2731;50.754;12.990;2023-02-28T09:28:35;9.43;;;5.88;;
5416;SDS011;2731;50.754;12.990;2023-02-28T09:31:02;8.48;;;5.47;;
5416;SDS011;2731;50.754;12.990;2023-02-28T09:33:31;8.80;;;5.18;;
5416;SDS011;2731;50.754;12.990;2023-02-28T09:36:01;14.18;;;5.45;;
5416;SDS011;2731;50.754;12.990;2023-02-28T09:38:28;12.65;;;5.80;;
5416;SDS011;2731;50.754;12.990;2023-02-28T09:40:59;12.15;;;6.35;;
5416;SDS011;2731;50.754;12.990;2023-02-28T09:43:33;9.07;;;5.43;;
5416;SDS011;2731;50.754;12.990;2023-02-28T09:46:26;10.77;;;5.95;;
5416;SDS011;2731;50.754;12.990;2023-02-28T09:51:40;9.98;;;6.15;;
5416;SDS011;2731;50.754;12.990;2023-02-28T09:54:23;13.25;;;7.82;;
5416;SDS011;2731;50.754;12.990;2023-02-28T10:04:59;13.13;;;6.47;;
5416;SDS011;2731;50.754;12.990;2023-02-28T10:07:37;8.88;;;5.85;;
5416;SDS011;2731;50.754;12.990;2023-02-28T10:10:19;10.90;;;5.97;;
5416;SDS011;2731;50.754;12.990;2023-02-28T10:12:47;11.45;;;7.13;;
5416;SDS011;2731;50.754;12.990;2023-02-28T10:15:16;9.68;;;5.90;;
5416;SDS011;2731;50.754;12.990;2023-02-28T10:17:44;9.95;;;6.03;;
5416;SDS011;2731;50.754;12.990;2023-02-28T10:20:20;10.68;;;5.95;;
5416;SDS011;2731;50.754;12.990;2023-02-28T10:22:57;9.40;;;5.68;;
5416;SDS011;2731;50.754;12.990;2023-02-28T10:25:26;8.20;;;5.20;;
5416;SDS011;2731;50.754;12.990;2023-02-28T10:27:59;12.10;;;6.53;;
5416;SDS011;2731;50.754;12.990;2023-02-28T10:30:28;9.95;;;6.22;;
5416;SDS011;2731;50.754;12.990;2023-02-28T10:32:54;12.35;;;6.32;;
5416;SDS011;2731;50.754;12.990;2023-02-28T10:35:26;13.50;;;6.47;;
5416;SDS011;2731;50.754;12.990;2023-02-28T10:37:58;8.77;;;6.03;;
5416;SDS011;2731;50.754;12.990;2023-02-28T10:40:34;9.75;;;5.53;;
5416;SDS011;2731;50.754;12.990;2023-02-28T10:43:05;9.73;;;6.03;;
5416;SDS011;2731;50.754;12.990;2023-02-28T10:45:33;10.95;;;6.82;;
5416;SDS011;2731;50.754;12.990;2023-02-28T10:48:10;13.35;;;7.40;;
5416;SDS011;2731;50.754;12.990;2023-02-28T10:50:51;13.15;;;7.72;;
5416;SDS011;2731;50.754;12.990;2023-02-28T10:56:03;11.82;;;6.95;;
5416;SDS011;2731;50.754;12.990;2023-02-28T11:04:20;12.65;;;6.93;;
5416;SDS011;2731;50.754;12.990;2023-02-28T11:07:09;10.68;;;6.93;;
5416;SDS011;2731;50.754;12.990;2023-02-28T11:09:45;9.20;;;6.32;;
5416;SDS011;2731;50.754;12.990;2023-02-28T11:14:53;9.27;;;6.60;;
5416;SDS011;2731;50.754;12.990;2023-02-28T11:17:24;10.55;;;6.35;;
5416;SDS011;2731;50.754;12.990;2023-02-28T11:20:00;11.20;;;6.35;;
5416;SDS011;2731;50.754;12.990;2023-02-28T11:22:29;11.15;;;6.63;;
5416;SDS011;2731;50.754;12.990;2023-02-28T11:25:02;11.23;;;6.38;;
5416;SDS011;2731;50.754;12.990;2023-02-28T11:30:02;10.23;;;6.97;;
5416;SDS011;2731;50.754;12.990;2023-02-28T11:32:30;11.25;;;6.07;;
5416;SDS011;2731;50.754;12.990;2023-02-28T11:37:36;9.55;;;6.22;;
5416;SDS011;2731;50.754;12.990;2023-02-28T11:43:06;10.43;;;5.70;;
5416;SDS011;2731;50.754;12.990;2023-02-28T11:48:17;8.02;;;5.90;;
5416;SDS011;2731;50.754;12.990;2023-02-28T11:56:08;9.55;;;6.10;;
5416;SDS011;2731;50.754;12.990;2023-02-28T12:28:25;9.88;;;5.82;;
5416;SDS011;2731;50.754;12.990;2023-02-28T12:31:29;9.25;;;6.07;;
5416;SDS011;2731;50.754;12.990;2023-02-28T12:34:15;11.38;;;6.60;;
5416;SDS011;2731;50.754;12.990;2023-02-28T12:36:47;9.60;;;6.43;;
5416;SDS011;2731;50.754;12.990;2023-02-28T12:39:19;10.38;;;6.22;;
5416;SDS011;2731;50.754;12.990;2023-02-28T12:41:54;12.82;;;7.15;;
5416;SDS011;2731;50.754;12.990;2023-02-28T12:45:09;10.50;;;6.40;;
5416;SDS011;2731;50.754;12.990;2023-02-28T12:47:12;12.50;;;6.65;;
5416;SDS011;2731;50.754;12.990;2023-02-28T12:49:49;10.95;;;7.10;;
5416;SDS011;2731;50.754;12.990;2023-02-28T12:52:17;10.63;;;6.80;;
5416;SDS011;2731;50.754;12.990;2023-02-28T12:54:54;11.25;;;5.53;;
5416;SDS011;2731;50.754;12.990;2023-02-28T12:59:56;11.63;;;6.70;;
5416;SDS011;2731;50.754;12.990;2023-02-28T13:02:33;7.93;;;5.55;;
5416;SDS011;2731;50.754;12.990;2023-02-28T13:07:32;12.13;;;7.00;;
5416;SDS011;2731;50.754;12.990;2023-02-28T13:10:02;10.73;;;6.50;;
5416;SDS011;2731;50.754;12.990;2023-02-28T13:12:29;11.60;;;6.57;;
5416;SDS011;2731;50.754;12.990;2023-02-28T13:15:07;9.25;;;6.05;;
5416;SDS011;2731;50.754;12.990;2023-02-28T13:17:40;11.27;;;6.60;;
5416;SDS011;2731;50.754;12.990;2023-02-28T13:20:14;13.23;;;6.97;;
5416;SDS011;2731;50.754;12.990;2023-02-28T13:22:42;11.75;;;7.22;;
5416;SDS011;2731;50.754;12.990;2023-02-28T13:27:52;13.50;;;7.70;;
5416;SDS011;2731;50.754;12.990;2023-02-28T13:33:29;10.45;;;6.32;;
5416;SDS011;2731;50.754;12.990;2023-02-28T13:39:03;10.23;;;6.22;;
5416;SDS011;2731;50.754;12.990;2023-02-28T13:46:35;8.52;;;5.68;;
5416;SDS011;2731;50.754;12.990;2023-02-28T13:52:16;8.18;;;5.78;;
5416;SDS011;2731;50.754;12.990;2023-02-28T14:05:18;11.88;;;6.85;;
5416;SDS011;2731;50.754;12.990;2023-02-28T14:07:58;11.15;;;6.70;;
5416;SDS011;2731;50.754;12.990;2023-02-28T14:10:28;9.82;;;7.20;;
5416;SDS011;2731;50.754;12.990;2023-02-28T14:16:00;9.98;;;7.03;;
5416;SDS011;2731;50.754;12.990;2023-02-28T14:18:36;10.07;;;6.63;;
5416;SDS011;2731;50.754;12.990;2023-02-28T14:26:19;10.48;;;6.93;;
5416;SDS011;2731;50.754;12.990;2023-02-28T14:36:47;8.85;;;6.65;;
5416;SDS011;2731;50.754;12.990;2023-02-28T14:39:15;10.40;;;6.10;;
5416;SDS011;2731;50.754;12.990;2023-02-28T14:41:43;7.95;;;5.82;;
5416;SDS011;2731;50.754;12.990;2023-02-28T14:46:42;9.32;;;6.07;;
5416;SDS011;2731;50.754;12.990;2023-02-28T14:52:14;8.02;;;5.68;;
5416;SDS011;2731;50.754;12.990;2023-02-28T14:54:41;8.45;;;6.60;;
5416;SDS011;2731;50.754;12.990;2023-02-28T15:02:39;8.40;;;5.55;;
5416;SDS011;2731;50.754;12.990;2023-02-28T15:07:46;6.97;;;4.97;;
5416;SDS011;2731;50.754;12.990;2023-02-28T15:12:41;9.38;;;6.25;;
5416;SDS011;2731;50.754;12.990;2023-02-28T15:15:15;9.02;;;6.03;;
5416;SDS011;2731;50.754;12.990;2023-02-28T15:17:44;9.00;;;6.45;;
5416;SDS011;2731;50.754;12.990;2023-02-28T15:20:13;8.43;;;6.38;;
5416;SDS011;2731;50.754;12.990;2023-02-28T15:22:41;8.18;;;6.15;;
5416;SDS011;2731;50.754;12.990;2023-02-28T15:25:07;5.95;;;5.32;;
5416;SDS011;2731;50.754;12.990;2023-02-28T15:27:41;6.78;;;5.72;;
5416;SDS011;2731;50.754;12.990;2023-02-28T15:30:17;7.72;;;5.68;;
5416;SDS011;2731;50.754;12.990;2023-02-28T15:32:45;7.75;;;5.80;;
5416;SDS011;2731;50.754;12.990;2023-02-28T15:35:31;9.00;;;5.90;;
5416;SDS011;2731;50.754;12.990;2023-02-28T15:41:05;7.57;;;5.68;;
5416;SDS011;2731;50.754;12.990;2023-02-28T15:43:46;7.15;;;5.25;;
5416;SDS011;2731;50.754;12.990;2023-02-28T15:46:12;8.60;;;6.22;;
5416;SDS011;2731;50.754;12.990;2023-02-28T15:48:51;8.27;;;5.78;;
5416;SDS011;2731;50.754;12.990;2023-02-28T15:51:24;7.28;;;5.60;;
5416;SDS011;2731;50.754;12.990;2023-02-28T15:54:14;7.45;;;5.65;;
5416;SDS011;2731;50.754;12.990;2023-02-28T15:56:44;8.60;;;6.35;;
5416;SDS011;2731;50.754;12.990;2023-02-28T15:59:25;9.75;;;7.00;;
5416;SDS011;2731;50.754;12.990;2023-02-28T16:04:37;9.45;;;6.75;;
5416;SDS011;2731;50.754;12.990;2023-02-28T16:07:06;8.95;;;6.85;;
5416;SDS011;2731;50.754;12.990;2023-02-28T16:09:32;8.25;;;6.22;;
5416;SDS011;2731;50.754;12.990;2023-02-28T16:12:01;9.80;;;7.43;;
5416;SDS011;2731;50.754;12.990;2023-02-28T16:14:30;12.63;;;7.38;;
5416;SDS011;2731;50.754;12.990;2023-02-28T16:17:04;9.93;;;7.50;;
5416;SDS011;2731;50.754;12.990;2023-02-28T16:19:44;8.93;;;7.07;;
5416;SDS011;2731;50.754;12.990;2023-02-28T16:22:10;11.85;;;7.55;;
5416;SDS011;2731;50.754;12.990;2023-02-28T16:24:38;11.93;;;8.02;;
5416;SDS011;2731;50.754;12.990;2023-02-28T16:27:06;17.58;;;8.80;;
5416;SDS011;2731;50.754;12.990;2023-02-28T16:29:35;12.90;;;8.23;;
5416;SDS011;2731;50.754;12.990;2023-02-28T16:32:05;14.35;;;8.23;;
5416;SDS011;2731;50.754;12.990;2023-02-28T16:34:32;15.77;;;8.57;;
5416;SDS011;2731;50.754;12.990;2023-02-28T16:37:01;14.20;;;7.70;;
5416;SDS011;2731;50.754;12.990;2023-02-28T16:39:29;11.88;;;7.72;;
5416;SDS011;2731;50.754;12.990;2023-02-28T16:41:57;14.27;;;7.90;;
5416;SDS011;2731;50.754;12.990;2023-02-28T16:44:34;12.85;;;7.72;;
5416;SDS011;2731;50.754;12.990;2023-02-28T16:47:03;16.25;;;8.80;;
5416;SDS011;2731;50.754;12.990;2023-02-28T16:49:29;22.88;;;12.60;;
5416;SDS011;2731;50.754;12.990;2023-02-28T16:51:57;25.83;;;14.27;;
5416;SDS011;2731;50.754;12.990;2023-02-28T16:54:25;29.05;;;15.65;;
5416;SDS011;2731;50.754;12.990;2023-02-28T16:56:54;26.30;;;14.48;;
5416;SDS011;2731;50.754;12.990;2023-02-28T16:59:26;17.15;;;11.63;;
5416;SDS011;2731;50.754;12.990;2023-02-28T17:01:54;16.63;;;9.85;;
5416;SDS011;2731;50.754;12.990;2023-02-28T17:04:26;15.38;;;9.93;;
5416;SDS011;2731;50.754;12.990;2023-02-28T17:06:55;17.63;;;9.38;;
5416;SDS011;2731;50.754;12.990;2023-02-28T17:09:25;16.42;;;9.90;;
5416;SDS011;2731;50.754;12.990;2023-02-28T17:11:53;14.32;;;9.20;;
5416;SDS011;2731;50.754;12.990;2023-02-28T17:14:20;16.70;;;8.52;;
5416;SDS011;2731;50.754;12.990;2023-02-28T17:16:52;15.68;;;9.63;;
5416;SDS011;2731;50.754;12.990;2023-02-28T17:19:19;18.40;;;9.93;;
5416;SDS011;2731;50.754;12.990;2023-02-28T17:21:47;17.90;;;9.32;;
5416;SDS011;2731;50.754;12.990;2023-02-28T17:24:13;17.10;;;9.55;;
5416;SDS011;2731;50.754;12.990;2023-02-28T17:26:44;19.00;;;10.02;;
5416;SDS011;2731;50.754;12.990;2023-02-28T17:29:17;19.10;;;10.65;;
5416;SDS011;2731;50.754;12.990;2023-02-28T17:31:45;17.92;;;10.52;;
5416;SDS011;2731;50.754;12.990;2023-02-28T17:34:12;17.73;;;10.43;;
5416;SDS011;2731;50.754;12.990;2023-02-28T17:39:12;18.38;;;9.93;;
5416;SDS011;2731;50.754;12.990;2023-02-28T17:41:47;17.80;;;10.68;;
5416;SDS011;2731;50.754;12.990;2023-02-28T17:44:15;18.42;;;10.63;;
5416;SDS011;2731;50.754;12.990;2023-02-28T17:46:47;21.75;;;12.18;;
5416;SDS011;2731;50.754;12.990;2023-02-28T17:49:24;21.23;;;11.48;;
5416;SDS011;2731;50.754;12.990;2023-02-28T17:51:53;25.90;;;10.20;;
5416;SDS011;2731;50.754;12.990;2023-02-28T17:54:23;19.65;;;10.85;;
5416;SDS011;2731;50.754;12.990;2023-02-28T17:56:52;21.77;;;12.20;;
5416;SDS011;2731;50.754;12.990;2023-02-28T17:59:28;22.55;;;10.68;;
5416;SDS011;2731;50.754;12.990;2023-02-28T18:02:00;20.00;;;11.10;;
5416;SDS011;2731;50.754;12.990;2023-02-28T18:04:37;21.05;;;11.48;;
5416;SDS011;2731;50.754;12.990;2023-02-28T18:07:09;21.48;;;12.25;;
5416;SDS011;2731;50.754;12.990;2023-02-28T18:09:38;25.15;;;13.77;;
5416;SDS011;2731;50.754;12.990;2023-02-28T18:12:04;27.50;;;13.27;;
5416;SDS011;2731;50.754;12.990;2023-02-28T18:14:32;24.55;;;13.68;;
5416;SDS011;2731;50.754;12.990;2023-02-28T18:16:59;21.60;;;12.30;;